SHMÚ vydal meteorologické výstrahy na Fog Display warnings

METAR

Aeronautical MET Report METAR

METAR description (Slovak)

17.10.2017 - 18:30 UTC

METAR LZIB 171830Z 03003KT CAVOK 14/11 Q1022=
METAR LZKZ 171830Z 34002KT CAVOK 13/11 Q1024=
METAR LZPP 171830Z 35005KT CAVOK 12/11 Q1023=
METAR LZSL 171830Z 00000KT 5000 0400SE BCFG NSC 10/09 Q1025=
METAR LZTT 171830Z 27006KT CAVOK 08/05 Q1025=
METAR LZZI 171830Z VRB01KT 8000 MIFG NSC 11/10 Q1024=

17.10.2017 - 18:00 UTC

METAR LZIB 171800Z 02005KT CAVOK 15/12 Q1022 NOSIG=
METAR LZKZ 171800Z VRB02KT CAVOK 13/11 Q1024=
METAR LZPP 171800Z 36004KT CAVOK 12/11 Q1023=
METAR LZSL 171800Z 00000KT 8000 0800SE BCFG NSC 11/10 Q1024=
METAR LZTT 171800Z 27005KT CAVOK 08/06 Q1025=
METAR LZZI 171800Z VRB02KT 9999 MIFG NSC 12/11 Q1024=

17.10.2017 - 18:00 UTC

METAR LZMC 171800Z 33002KT CAVOK 16/12 Q1023=
METAR LZPW 171800Z 12002KT CAVOK 11/10 Q1024=

 

 

skok na menu ↑


skok na začiatok stránky ↑